sensor_id;sensor_type;location;lat;lon;timestamp;P1;durP1;ratioP1;P2;durP2;ratioP2
39016;SDS011;24784;45.582;5.276;2022-12-29T07:13:13;7.55;;;2.88;;
39016;SDS011;24784;45.582;5.276;2022-12-29T07:15:38;5.50;;;3.08;;
39016;SDS011;24784;45.582;5.276;2022-12-29T07:18:04;10.85;;;3.17;;
39016;SDS011;24784;45.582;5.276;2022-12-29T07:20:30;7.38;;;3.10;;
39016;SDS011;24784;45.582;5.276;2022-12-29T07:22:56;10.18;;;3.10;;
39016;SDS011;24784;45.582;5.276;2022-12-29T07:25:22;9.40;;;2.80;;
39016;SDS011;24784;45.582;5.276;2022-12-29T07:27:48;6.25;;;3.15;;
39016;SDS011;24784;45.582;5.276;2022-12-29T07:30:14;10.50;;;3.50;;
39016;SDS011;24784;45.582;5.276;2022-12-29T07:32:40;10.07;;;3.40;;
39016;SDS011;24784;45.582;5.276;2022-12-29T07:35:06;5.95;;;3.38;;
39016;SDS011;24784;45.582;5.276;2022-12-29T07:37:33;9.20;;;3.42;;
39016;SDS011;24784;45.582;5.276;2022-12-29T07:40:00;5.97;;;2.92;;
39016;SDS011;24784;45.582;5.276;2022-12-29T07:42:26;5.95;;;3.22;;
39016;SDS011;24784;45.582;5.276;2022-12-29T07:44:52;8.73;;;3.72;;
39016;SDS011;24784;45.582;5.276;2022-12-29T07:47:18;11.73;;;3.67;;
39016;SDS011;24784;45.582;5.276;2022-12-29T07:49:43;8.23;;;3.50;;
39016;SDS011;24784;45.582;5.276;2022-12-29T07:52:09;8.93;;;3.60;;
39016;SDS011;24784;45.582;5.276;2022-12-29T07:54:35;8.48;;;3.60;;
39016;SDS011;24784;45.582;5.276;2022-12-29T07:57:01;8.48;;;3.80;;
39016;SDS011;24784;45.582;5.276;2022-12-29T07:59:27;5.47;;;2.75;;
39016;SDS011;24784;45.582;5.276;2022-12-29T08:01:53;5.93;;;3.40;;
39016;SDS011;24784;45.582;5.276;2022-12-29T08:04:19;6.18;;;3.20;;
39016;SDS011;24784;45.582;5.276;2022-12-29T08:06:45;6.95;;;4.18;;
39016;SDS011;24784;45.582;5.276;2022-12-29T08:09:10;12.35;;;3.63;;
39016;SDS011;24784;45.582;5.276;2022-12-29T08:11:36;8.32;;;3.35;;
39016;SDS011;24784;45.582;5.276;2022-12-29T08:14:02;6.40;;;3.45;;
39016;SDS011;24784;45.582;5.276;2022-12-29T08:16:28;6.90;;;3.60;;
39016;SDS011;24784;45.582;5.276;2022-12-29T08:18:56;8.15;;;3.83;;
39016;SDS011;24784;45.582;5.276;2022-12-29T08:21:21;9.18;;;3.70;;
39016;SDS011;24784;45.582;5.276;2022-12-29T08:23:47;7.25;;;3.47;;
39016;SDS011;24784;45.582;5.276;2022-12-29T08:26:13;9.38;;;3.75;;
39016;SDS011;24784;45.582;5.276;2022-12-29T08:28:38;7.68;;;3.30;;
39016;SDS011;24784;45.582;5.276;2022-12-29T08:31:04;7.95;;;3.90;;
39016;SDS011;24784;45.582;5.276;2022-12-29T08:33:32;8.38;;;3.67;;
39016;SDS011;24784;45.582;5.276;2022-12-29T08:35:59;10.88;;;3.75;;
39016;SDS011;24784;45.582;5.276;2022-12-29T08:38:26;14.23;;;3.67;;
39016;SDS011;24784;45.582;5.276;2022-12-29T08:40:53;10.93;;;4.78;;
39016;SDS011;24784;45.582;5.276;2022-12-29T08:43:20;7.35;;;3.13;;
39016;SDS011;24784;45.582;5.276;2022-12-29T08:45:45;8.65;;;3.58;;
39016;SDS011;24784;45.582;5.276;2022-12-29T08:48:11;8.10;;;3.67;;
39016;SDS011;24784;45.582;5.276;2022-12-29T08:50:37;6.03;;;3.67;;
39016;SDS011;24784;45.582;5.276;2022-12-29T08:53:02;9.27;;;4.25;;
39016;SDS011;24784;45.582;5.276;2022-12-29T08:55:28;11.75;;;3.60;;
39016;SDS011;24784;45.582;5.276;2022-12-29T08:57:54;8.02;;;3.63;;
39016;SDS011;24784;45.582;5.276;2022-12-29T09:00:20;9.15;;;3.70;;
39016;SDS011;24784;45.582;5.276;2022-12-29T09:02:46;10.68;;;4.10;;
39016;SDS011;24784;45.582;5.276;2022-12-29T09:05:12;13.10;;;3.85;;
39016;SDS011;24784;45.582;5.276;2022-12-29T09:07:38;14.75;;;4.35;;
39016;SDS011;24784;45.582;5.276;2022-12-29T09:10:04;11.50;;;4.50;;
39016;SDS011;24784;45.582;5.276;2022-12-29T09:12:30;13.25;;;4.00;;
39016;SDS011;24784;45.582;5.276;2022-12-29T09:14:55;9.25;;;4.15;;
39016;SDS011;24784;45.582;5.276;2022-12-29T09:17:21;11.45;;;4.30;;
39016;SDS011;24784;45.582;5.276;2022-12-29T09:20:05;13.48;;;3.65;;
39016;SDS011;24784;45.582;5.276;2022-12-29T09:22:31;7.68;;;3.63;;
39016;SDS011;24784;45.582;5.276;2022-12-29T09:24:57;11.07;;;4.20;;
39016;SDS011;24784;45.582;5.276;2022-12-29T09:27:23;8.88;;;3.90;;
39016;SDS011;24784;45.582;5.276;2022-12-29T09:29:49;7.20;;;3.70;;
39016;SDS011;24784;45.582;5.276;2022-12-29T09:32:14;7.50;;;3.70;;
39016;SDS011;24784;45.582;5.276;2022-12-29T09:34:40;8.13;;;4.10;;
39016;SDS011;24784;45.582;5.276;2022-12-29T09:37:06;5.57;;;3.50;;
39016;SDS011;24784;45.582;5.276;2022-12-29T09:39:31;10.82;;;3.63;;
39016;SDS011;24784;45.582;5.276;2022-12-29T09:47:26;6.70;;;3.38;;
39016;SDS011;24784;45.582;5.276;2022-12-29T09:49:54;10.00;;;3.80;;
39016;SDS011;24784;45.582;5.276;2022-12-29T09:52:48;5.63;;;3.15;;
39016;SDS011;24784;45.582;5.276;2022-12-29T09:55:21;8.70;;;3.45;;
39016;SDS011;24784;45.582;5.276;2022-12-29T09:57:52;9.13;;;3.15;;
39016;SDS011;24784;45.582;5.276;2022-12-29T10:00:22;7.32;;;3.55;;
39016;SDS011;24784;45.582;5.276;2022-12-29T10:03:20;7.95;;;3.17;;
39016;SDS011;24784;45.582;5.276;2022-12-29T10:24:51;20.38;;;7.70;;
39016;SDS011;24784;45.582;5.276;2022-12-29T10:27:20;7.47;;;3.90;;
39016;SDS011;24784;45.582;5.276;2022-12-29T10:29:53;17.40;;;6.90;;
39016;SDS011;24784;45.582;5.276;2022-12-29T10:32:25;8.95;;;4.47;;
39016;SDS011;24784;45.582;5.276;2022-12-29T10:34:57;9.23;;;3.45;;
39016;SDS011;24784;45.582;5.276;2022-12-29T10:38:01;15.27;;;5.63;;
39016;SDS011;24784;45.582;5.276;2022-12-29T10:40:19;7.57;;;3.53;;
39016;SDS011;24784;45.582;5.276;2022-12-29T10:42:54;8.57;;;3.92;;
39016;SDS011;24784;45.582;5.276;2022-12-29T10:45:22;8.20;;;3.28;;
39016;SDS011;24784;45.582;5.276;2022-12-29T10:47:53;5.35;;;3.30;;
39016;SDS011;24784;45.582;5.276;2022-12-29T10:50:33;10.23;;;3.88;;
39016;SDS011;24784;45.582;5.276;2022-12-29T10:53:01;7.28;;;3.30;;
39016;SDS011;24784;45.582;5.276;2022-12-29T10:55:31;7.78;;;3.33;;
39016;SDS011;24784;45.582;5.276;2022-12-29T10:58:01;8.95;;;3.55;;
39016;SDS011;24784;45.582;5.276;2022-12-29T11:00:31;10.50;;;3.60;;
39016;SDS011;24784;45.582;5.276;2022-12-29T11:08:40;10.40;;;3.45;;
39016;SDS011;24784;45.582;5.276;2022-12-29T11:11:12;16.08;;;4.22;;
39016;SDS011;24784;45.582;5.276;2022-12-29T11:13:54;9.15;;;3.38;;
39016;SDS011;24784;45.582;5.276;2022-12-29T11:16:33;12.02;;;3.38;;
39016;SDS011;24784;45.582;5.276;2022-12-29T11:18:59;9.27;;;3.85;;
39016;SDS011;24784;45.582;5.276;2022-12-29T11:21:33;8.25;;;3.30;;
39016;SDS011;24784;45.582;5.276;2022-12-29T11:24:23;8.32;;;3.30;;
39016;SDS011;24784;45.582;5.276;2022-12-29T11:26:52;9.07;;;3.83;;
39016;SDS011;24784;45.582;5.276;2022-12-29T11:29:23;6.85;;;3.47;;
39016;SDS011;24784;45.582;5.276;2022-12-29T11:31:51;12.35;;;3.03;;
39016;SDS011;24784;45.582;5.276;2022-12-29T11:36:51;11.90;;;4.28;;
39016;SDS011;24784;45.582;5.276;2022-12-29T11:39:26;7.50;;;3.60;;
39016;SDS011;24784;45.582;5.276;2022-12-29T11:44:26;6.43;;;3.13;;
39016;SDS011;24784;45.582;5.276;2022-12-29T11:46:52;14.30;;;4.97;;
39016;SDS011;24784;45.582;5.276;2022-12-29T11:49:20;12.65;;;3.35;;
39016;SDS011;24784;45.582;5.276;2022-12-29T11:51:48;7.57;;;3.50;;
39016;SDS011;24784;45.582;5.276;2022-12-29T11:54:23;7.70;;;3.10;;
39016;SDS011;24784;45.582;5.276;2022-12-29T11:56:57;9.63;;;3.95;;
39016;SDS011;24784;45.582;5.276;2022-12-29T11:59:37;9.70;;;3.38;;
39016;SDS011;24784;45.582;5.276;2022-12-29T12:02:48;7.35;;;3.28;;
39016;SDS011;24784;45.582;5.276;2022-12-29T12:07:39;9.20;;;3.30;;
39016;SDS011;24784;45.582;5.276;2022-12-29T12:10:19;8.93;;;3.53;;
39016;SDS011;24784;45.582;5.276;2022-12-29T12:21:18;15.68;;;4.63;;
39016;SDS011;24784;45.582;5.276;2022-12-29T12:24:19;8.88;;;3.40;;
39016;SDS011;24784;45.582;5.276;2022-12-29T12:29:25;8.68;;;3.80;;
39016;SDS011;24784;45.582;5.276;2022-12-29T12:32:19;8.57;;;3.60;;
39016;SDS011;24784;45.582;5.276;2022-12-29T12:34:54;6.95;;;3.28;;
39016;SDS011;24784;45.582;5.276;2022-12-29T12:54:01;12.13;;;4.38;;
39016;SDS011;24784;45.582;5.276;2022-12-29T13:01:56;11.40;;;5.90;;
39016;SDS011;24784;45.582;5.276;2022-12-29T13:07:10;12.98;;;4.88;;
39016;SDS011;24784;45.582;5.276;2022-12-29T13:09:47;12.70;;;4.60;;
39016;SDS011;24784;45.582;5.276;2022-12-29T13:12:35;11.38;;;4.05;;
39016;SDS011;24784;45.582;5.276;2022-12-29T13:17:48;11.43;;;3.97;;
39016;SDS011;24784;45.582;5.276;2022-12-29T13:20:20;13.48;;;4.28;;
39016;SDS011;24784;45.582;5.276;2022-12-29T13:28:21;16.65;;;4.85;;
39016;SDS011;24784;45.582;5.276;2022-12-29T13:44:17;12.88;;;4.43;;
39016;SDS011;24784;45.582;5.276;2022-12-29T13:46:52;12.35;;;3.45;;
39016;SDS011;24784;45.582;5.276;2022-12-29T13:49:22;13.45;;;4.00;;
39016;SDS011;24784;45.582;5.276;2022-12-29T13:57:38;14.27;;;5.25;;
39016;SDS011;24784;45.582;5.276;2022-12-29T14:00:23;11.65;;;4.00;;
39016;SDS011;24784;45.582;5.276;2022-12-29T14:03:01;11.93;;;4.20;;
39016;SDS011;24784;45.582;5.276;2022-12-29T14:06:03;11.98;;;4.15;;
39016;SDS011;24784;45.582;5.276;2022-12-29T14:08:46;12.32;;;4.88;;
39016;SDS011;24784;45.582;5.276;2022-12-29T14:11:14;15.05;;;4.38;;
39016;SDS011;24784;45.582;5.276;2022-12-29T14:13:42;20.13;;;7.03;;
39016;SDS011;24784;45.582;5.276;2022-12-29T14:16:21;12.88;;;4.80;;
39016;SDS011;24784;45.582;5.276;2022-12-29T14:18:51;12.23;;;4.03;;
39016;SDS011;24784;45.582;5.276;2022-12-29T14:21:20;15.88;;;4.30;;
39016;SDS011;24784;45.582;5.276;2022-12-29T14:23:48;17.60;;;5.10;;
39016;SDS011;24784;45.582;5.276;2022-12-29T14:26:34;14.85;;;4.95;;
39016;SDS011;24784;45.582;5.276;2022-12-29T14:29:46;14.60;;;4.25;;
39016;SDS011;24784;45.582;5.276;2022-12-29T14:31:46;15.27;;;4.90;;
39016;SDS011;24784;45.582;5.276;2022-12-29T14:36:57;16.25;;;4.80;;
39016;SDS011;24784;45.582;5.276;2022-12-29T14:39:38;20.05;;;5.22;;
39016;SDS011;24784;45.582;5.276;2022-12-29T14:44:51;16.35;;;5.50;;
39016;SDS011;24784;45.582;5.276;2022-12-29T14:52:45;19.65;;;6.28;;
39016;SDS011;24784;45.582;5.276;2022-12-29T14:57:40;17.92;;;5.40;;
39016;SDS011;24784;45.582;5.276;2022-12-29T15:00:19;17.33;;;5.78;;
39016;SDS011;24784;45.582;5.276;2022-12-29T15:08:09;9.73;;;5.25;;
39016;SDS011;24784;45.582;5.276;2022-12-29T15:10:39;18.02;;;6.32;;
39016;SDS011;24784;45.582;5.276;2022-12-29T15:13:16;14.80;;;6.07;;
39016;SDS011;24784;45.582;5.276;2022-12-29T15:15:47;18.75;;;6.97;;
39016;SDS011;24784;45.582;5.276;2022-12-29T15:18:23;17.90;;;6.65;;
39016;SDS011;24784;45.582;5.276;2022-12-29T15:20:53;18.30;;;6.45;;
39016;SDS011;24784;45.582;5.276;2022-12-29T15:23:22;11.70;;;5.00;;
39016;SDS011;24784;45.582;5.276;2022-12-29T15:25:58;18.70;;;6.45;;
39016;SDS011;24784;45.582;5.276;2022-12-29T15:28:41;16.67;;;6.90;;
39016;SDS011;24784;45.582;5.276;2022-12-29T15:31:12;16.60;;;6.65;;
39016;SDS011;24784;45.582;5.276;2022-12-29T15:33:40;17.30;;;5.72;;
39016;SDS011;24784;45.582;5.276;2022-12-29T15:36:12;16.35;;;5.55;;
39016;SDS011;24784;45.582;5.276;2022-12-29T15:38:43;18.30;;;6.70;;
39016;SDS011;24784;45.582;5.276;2022-12-29T15:41:16;16.25;;;5.57;;
39016;SDS011;24784;45.582;5.276;2022-12-29T15:46:18;17.98;;;6.55;;
39016;SDS011;24784;45.582;5.276;2022-12-29T15:48:44;16.17;;;7.97;;
39016;SDS011;24784;45.582;5.276;2022-12-29T15:51:15;13.25;;;5.93;;
39016;SDS011;24784;45.582;5.276;2022-12-29T15:53:48;11.75;;;5.53;;
39016;SDS011;24784;45.582;5.276;2022-12-29T15:56:16;20.85;;;5.97;;
39016;SDS011;24784;45.582;5.276;2022-12-29T15:58:50;18.13;;;6.03;;
39016;SDS011;24784;45.582;5.276;2022-12-29T16:03:47;17.60;;;6.60;;
39016;SDS011;24784;45.582;5.276;2022-12-29T16:06:28;20.55;;;7.30;;
39016;SDS011;24784;45.582;5.276;2022-12-29T16:09:13;17.55;;;5.70;;
39016;SDS011;24784;45.582;5.276;2022-12-29T16:12:00;18.30;;;6.18;;
39016;SDS011;24784;45.582;5.276;2022-12-29T16:14:31;16.90;;;6.40;;
39016;SDS011;24784;45.582;5.276;2022-12-29T16:17:13;18.33;;;5.78;;
39016;SDS011;24784;45.582;5.276;2022-12-29T16:22:57;23.02;;;9.63;;
39016;SDS011;24784;45.582;5.276;2022-12-29T16:27:56;13.80;;;6.03;;
39016;SDS011;24784;45.582;5.276;2022-12-29T16:30:27;15.48;;;6.65;;
39016;SDS011;24784;45.582;5.276;2022-12-29T16:32:58;52.13;;;32.55;;
39016;SDS011;24784;45.582;5.276;2022-12-29T16:35:26;21.63;;;10.00;;
39016;SDS011;24784;45.582;5.276;2022-12-29T16:38:17;11.85;;;6.03;;
39016;SDS011;24784;45.582;5.276;2022-12-29T16:40:53;17.95;;;6.05;;
39016;SDS011;24784;45.582;5.276;2022-12-29T16:43:27;17.98;;;6.07;;
39016;SDS011;24784;45.582;5.276;2022-12-29T16:48:30;16.17;;;7.30;;
39016;SDS011;24784;45.582;5.276;2022-12-29T16:51:11;17.48;;;6.78;;
39016;SDS011;24784;45.582;5.276;2022-12-29T16:53:50;14.93;;;6.30;;
39016;SDS011;24784;45.582;5.276;2022-12-29T16:58:48;16.60;;;6.68;;
39016;SDS011;24784;45.582;5.276;2022-12-29T17:01:18;19.03;;;6.37;;
39016;SDS011;24784;45.582;5.276;2022-12-29T17:03:49;11.43;;;6.53;;
39016;SDS011;24784;45.582;5.276;2022-12-29T17:06:26;14.27;;;6.60;;
39016;SDS011;24784;45.582;5.276;2022-12-29T17:08:52;18.52;;;6.70;;
39016;SDS011;24784;45.582;5.276;2022-12-29T17:11:22;12.73;;;6.82;;
39016;SDS011;24784;45.582;5.276;2022-12-29T17:14:49;16.60;;;6.82;;
39016;SDS011;24784;45.582;5.276;2022-12-29T17:16:59;15.73;;;7.57;;
39016;SDS011;24784;45.582;5.276;2022-12-29T17:19:35;20.70;;;8.45;;
39016;SDS011;24784;45.582;5.276;2022-12-29T17:22:02;13.25;;;6.70;;
39016;SDS011;24784;45.582;5.276;2022-12-29T17:24:38;13.15;;;6.60;;
39016;SDS011;24784;45.582;5.276;2022-12-29T17:27:04;16.02;;;6.20;;
39016;SDS011;24784;45.582;5.276;2022-12-29T17:29:36;11.35;;;5.63;;
39016;SDS011;24784;45.582;5.276;2022-12-29T17:32:05;7.10;;;4.57;;
39016;SDS011;24784;45.582;5.276;2022-12-29T17:34:37;10.63;;;6.15;;
39016;SDS011;24784;45.582;5.276;2022-12-29T17:37:09;12.25;;;6.05;;
39016;SDS011;24784;45.582;5.276;2022-12-29T17:39:53;6.25;;;3.15;;
39016;SDS011;24784;45.582;5.276;2022-12-29T17:42:18;6.68;;;2.70;;
39016;SDS011;24784;45.582;5.276;2022-12-29T17:44:44;5.60;;;2.88;;
39016;SDS011;24784;45.582;5.276;2022-12-29T17:47:10;3.55;;;2.47;;
39016;SDS011;24784;45.582;5.276;2022-12-29T17:49:40;4.78;;;2.20;;
39016;SDS011;24784;45.582;5.276;2022-12-29T17:52:10;6.88;;;2.55;;
39016;SDS011;24784;45.582;5.276;2022-12-29T17:54:40;9.35;;;3.10;;
39016;SDS011;24784;45.582;5.276;2022-12-29T17:57:12;3.40;;;2.60;;
39016;SDS011;24784;45.582;5.276;2022-12-29T17:59:40;5.82;;;2.70;;
39016;SDS011;24784;45.582;5.276;2022-12-29T18:04:58;3.88;;;2.33;;
39016;SDS011;24784;45.582;5.276;2022-12-29T18:07:26;7.80;;;3.08;;
39016;SDS011;24784;45.582;5.276;2022-12-29T18:09:54;4.85;;;3.05;;
39016;SDS011;24784;45.582;5.276;2022-12-29T18:12:30;4.13;;;2.88;;
39016;SDS011;24784;45.582;5.276;2022-12-29T18:15:02;5.15;;;2.72;;
39016;SDS011;24784;45.582;5.276;2022-12-29T18:17:28;3.45;;;2.45;;
39016;SDS011;24784;45.582;5.276;2022-12-29T18:19:54;5.43;;;2.88;;
39016;SDS011;24784;45.582;5.276;2022-12-29T18:22:21;5.43;;;2.45;;
39016;SDS011;24784;45.582;5.276;2022-12-29T18:24:48;6.05;;;3.47;;
39016;SDS011;24784;45.582;5.276;2022-12-29T18:27:15;5.18;;;3.38;;
39016;SDS011;24784;45.582;5.276;2022-12-29T18:29:43;5.07;;;3.30;;
39016;SDS011;24784;45.582;5.276;2022-12-29T18:32:13;7.35;;;2.97;;
39016;SDS011;24784;45.582;5.276;2022-12-29T18:34:39;4.95;;;2.85;;
39016;SDS011;24784;45.582;5.276;2022-12-29T18:37:06;8.77;;;3.47;;
39016;SDS011;24784;45.582;5.276;2022-12-29T18:39:32;7.05;;;3.22;;
39016;SDS011;24784;45.582;5.276;2022-12-29T18:41:58;5.85;;;3.05;;
39016;SDS011;24784;45.582;5.276;2022-12-29T18:44:24;10.00;;;4.15;;
39016;SDS011;24784;45.582;5.276;2022-12-29T18:46:49;6.30;;;3.42;;
39016;SDS011;24784;45.582;5.276;2022-12-29T18:49:15;6.53;;;3.33;;
39016;SDS011;24784;45.582;5.276;2022-12-29T18:51:41;7.50;;;3.30;;
39016;SDS011;24784;45.582;5.276;2022-12-29T18:54:13;5.93;;;3.17;;
39016;SDS011;24784;45.582;5.276;2022-12-29T18:56:48;8.82;;;3.55;;
39016;SDS011;24784;45.582;5.276;2022-12-29T18:59:13;5.75;;;3.10;;
39016;SDS011;24784;45.582;5.276;2022-12-29T19:01:39;3.55;;;2.47;;
39016;SDS011;24784;45.582;5.276;2022-12-29T19:04:05;10.95;;;3.97;;
39016;SDS011;24784;45.582;5.276;2022-12-29T19:06:30;8.73;;;4.20;;
39016;SDS011;24784;45.582;5.276;2022-12-29T19:08:56;10.73;;;5.18;;
39016;SDS011;24784;45.582;5.276;2022-12-29T19:11:22;6.50;;;4.55;;
39016;SDS011;24784;45.582;5.276;2022-12-29T19:13:48;7.38;;;4.15;;
39016;SDS011;24784;45.582;5.276;2022-12-29T19:16:18;9.75;;;3.85;;
39016;SDS011;24784;45.582;5.276;2022-12-29T19:18:45;12.60;;;8.35;;
39016;SDS011;24784;45.582;5.276;2022-12-29T19:21:11;7.63;;;5.07;;
39016;SDS011;24784;45.582;5.276;2022-12-29T19:23:37;7.55;;;4.10;;
39016;SDS011;24784;45.582;5.276;2022-12-29T19:26:02;8.30;;;4.85;;
39016;SDS011;24784;45.582;5.276;2022-12-29T19:28:28;12.40;;;6.60;;
39016;SDS011;24784;45.582;5.276;2022-12-29T19:30:56;9.00;;;5.22;;
39016;SDS011;24784;45.582;5.276;2022-12-29T19:33:23;14.00;;;5.00;;
39016;SDS011;24784;45.582;5.276;2022-12-29T19:35:50;7.43;;;5.30;;
39016;SDS011;24784;45.582;5.276;2022-12-29T19:38:16;8.88;;;4.70;;
39016;SDS011;24784;45.582;5.276;2022-12-29T19:40:43;6.53;;;4.53;;
39016;SDS011;24784;45.582;5.276;2022-12-29T19:43:11;8.57;;;4.22;;
39016;SDS011;24784;45.582;5.276;2022-12-29T19:45:41;6.00;;;4.35;;
39016;SDS011;24784;45.582;5.276;2022-12-29T19:48:11;8.35;;;6.10;;
39016;SDS011;24784;45.582;5.276;2022-12-29T19:50:41;10.18;;;6.38;;
39016;SDS011;24784;45.582;5.276;2022-12-29T19:53:08;6.65;;;4.95;;
39016;SDS011;24784;45.582;5.276;2022-12-29T19:55:33;7.53;;;5.55;;
39016;SDS011;24784;45.582;5.276;2022-12-29T19:57:59;9.60;;;4.60;;
39016;SDS011;24784;45.582;5.276;2022-12-29T20:00:25;17.95;;;10.93;;
39016;SDS011;24784;45.582;5.276;2022-12-29T20:02:51;22.30;;;12.18;;
39016;SDS011;24784;45.582;5.276;2022-12-29T20:05:17;16.08;;;10.98;;
39016;SDS011;24784;45.582;5.276;2022-12-29T20:07:43;10.52;;;8.18;;
39016;SDS011;24784;45.582;5.276;2022-12-29T20:10:09;12.70;;;7.32;;
39016;SDS011;24784;45.582;5.276;2022-12-29T20:12:35;8.90;;;6.40;;
39016;SDS011;24784;45.582;5.276;2022-12-29T20:15:03;7.65;;;5.65;;
39016;SDS011;24784;45.582;5.276;2022-12-29T20:17:33;8.18;;;5.70;;
39016;SDS011;24784;45.582;5.276;2022-12-29T20:19:58;7.20;;;5.25;;
39016;SDS011;24784;45.582;5.276;2022-12-29T20:22:24;8.50;;;5.65;;
39016;SDS011;24784;45.582;5.276;2022-12-29T20:24:50;7.85;;;5.50;;
39016;SDS011;24784;45.582;5.276;2022-12-29T20:27:16;8.05;;;5.80;;
39016;SDS011;24784;45.582;5.276;2022-12-29T20:29:42;8.73;;;5.85;;
39016;SDS011;24784;45.582;5.276;2022-12-29T20:32:12;8.82;;;6.10;;
39016;SDS011;24784;45.582;5.276;2022-12-29T20:34:49;7.45;;;5.50;;
39016;SDS011;24784;45.582;5.276;2022-12-29T20:37:16;11.15;;;5.63;;
39016;SDS011;24784;45.582;5.276;2022-12-29T20:39:43;10.80;;;6.53;;
39016;SDS011;24784;45.582;5.276;2022-12-29T20:42:09;10.90;;;6.85;;
39016;SDS011;24784;45.582;5.276;2022-12-29T20:44:35;11.90;;;7.45;;
39016;SDS011;24784;45.582;5.276;2022-12-29T20:47:01;9.52;;;5.50;;
39016;SDS011;24784;45.582;5.276;2022-12-29T20:49:29;13.73;;;7.95;;
39016;SDS011;24784;45.582;5.276;2022-12-29T20:51:56;11.00;;;7.00;;
39016;SDS011;24784;45.582;5.276;2022-12-29T20:54:22;14.77;;;9.38;;
39016;SDS011;24784;45.582;5.276;2022-12-29T20:56:48;18.98;;;12.40;;
39016;SDS011;24784;45.582;5.276;2022-12-29T20:59:14;38.67;;;24.05;;
39016;SDS011;24784;45.582;5.276;2022-12-29T21:01:40;25.15;;;18.88;;
39016;SDS011;24784;45.582;5.276;2022-12-29T21:04:07;19.50;;;12.90;;
39016;SDS011;24784;45.582;5.276;2022-12-29T21:06:33;42.95;;;30.75;;
39016;SDS011;24784;45.582;5.276;2022-12-29T21:08:59;20.63;;;15.02;;
39016;SDS011;24784;45.582;5.276;2022-12-29T21:11:25;14.57;;;10.30;;
39016;SDS011;24784;45.582;5.276;2022-12-29T21:13:52;17.40;;;11.70;;
39016;SDS011;24784;45.582;5.276;2022-12-29T21:16:18;17.35;;;11.00;;
39016;SDS011;24784;45.582;5.276;2022-12-29T21:18:47;41.85;;;27.73;;
39016;SDS011;24784;45.582;5.276;2022-12-29T21:21:14;25.45;;;18.83;;
39016;SDS011;24784;45.582;5.276;2022-12-29T21:23:48;13.27;;;9.82;;
39016;SDS011;24784;45.582;5.276;2022-12-29T21:26:16;29.27;;;22.08;;
39016;SDS011;24784;45.582;5.276;2022-12-29T21:28:44;51.22;;;34.55;;
39016;SDS011;24784;45.582;5.276;2022-12-29T21:31:11;35.08;;;24.42;;
39016;SDS011;24784;45.582;5.276;2022-12-29T21:33:49;30.10;;;19.95;;
39016;SDS011;24784;45.582;5.276;2022-12-29T21:36:15;41.97;;;24.35;;
39016;SDS011;24784;45.582;5.276;2022-12-29T21:38:41;33.95;;;20.15;;
39016;SDS011;24784;45.582;5.276;2022-12-29T21:41:11;26.73;;;17.08;;
39016;SDS011;24784;45.582;5.276;2022-12-29T21:43:39;20.27;;;13.27;;
39016;SDS011;24784;45.582;5.276;2022-12-29T21:46:05;18.60;;;12.10;;
39016;SDS011;24784;45.582;5.276;2022-12-29T21:48:32;23.85;;;12.52;;
39016;SDS011;24784;45.582;5.276;2022-12-29T21:51:04;16.48;;;10.80;;
39016;SDS011;24784;45.582;5.276;2022-12-29T21:53:54;15.95;;;11.60;;
39016;SDS011;24784;45.582;5.276;2022-12-29T23:10:39;36.90;;;21.17;;
39016;SDS011;24784;45.582;5.276;2022-12-29T23:13:05;36.38;;;21.65;;
39016;SDS011;24784;45.582;5.276;2022-12-29T23:15:30;37.88;;;22.17;;
39016;SDS011;24784;45.582;5.276;2022-12-29T23:17:56;39.75;;;21.88;;
39016;SDS011;24784;45.582;5.276;2022-12-29T23:20:22;34.17;;;20.05;;
39016;SDS011;24784;45.582;5.276;2022-12-29T23:22:47;39.25;;;21.75;;
39016;SDS011;24784;45.582;5.276;2022-12-29T23:25:13;36.58;;;20.85;;
39016;SDS011;24784;45.582;5.276;2022-12-29T23:27:39;43.45;;;22.45;;
39016;SDS011;24784;45.582;5.276;2022-12-29T23:30:05;39.85;;;21.25;;
39016;SDS011;24784;45.582;5.276;2022-12-29T23:32:31;36.28;;;21.00;;
39016;SDS011;24784;45.582;5.276;2022-12-29T23:34:57;35.88;;;22.15;;
39016;SDS011;24784;45.582;5.276;2022-12-29T23:37:22;37.50;;;22.05;;
39016;SDS011;24784;45.582;5.276;2022-12-29T23:39:48;39.85;;;22.30;;
39016;SDS011;24784;45.582;5.276;2022-12-29T23:42:14;42.97;;;24.98;;
39016;SDS011;24784;45.582;5.276;2022-12-29T23:44:39;44.83;;;24.13;;
39016;SDS011;24784;45.582;5.276;2022-12-29T23:47:05;37.55;;;19.38;;
39016;SDS011;24784;45.582;5.276;2022-12-29T23:49:31;26.85;;;16.95;;
39016;SDS011;24784;45.582;5.276;2022-12-29T23:51:57;29.70;;;16.60;;
39016;SDS011;24784;45.582;5.276;2022-12-29T23:54:22;26.05;;;15.90;;
39016;SDS011;24784;45.582;5.276;2022-12-29T23:56:49;24.55;;;14.80;;
39016;SDS011;24784;45.582;5.276;2022-12-29T23:59:15;50.30;;;20.58;;
